createdAt,value
2019-03-04T05:53:01.911Z,1.60
2019-03-04T05:55:34.756Z,1.22
2019-03-04T06:04:12.788Z,1.17
2019-03-04T06:24:40.988Z,1.75
2019-03-04T06:47:20.890Z,1.80
2019-03-04T08:38:31.345Z,2.50
2019-03-04T08:41:28.379Z,2.05
2019-03-04T08:44:10.142Z,1.75
2019-03-04T08:46:39.342Z,1.90
2019-03-04T08:49:08.859Z,2.72
2019-03-04T08:51:38.386Z,2.95
2019-03-04T08:54:10.323Z,1.22
2019-03-04T08:56:40.496Z,1.32
2019-03-04T08:59:10.877Z,1.00
2019-03-04T09:01:41.057Z,0.70
2019-03-04T09:04:10.550Z,0.72
2019-03-04T09:06:43.408Z,0.60
2019-03-04T09:09:26.514Z,0.90
2019-03-04T09:11:57.501Z,0.50
2019-03-04T09:14:26.808Z,0.60
2019-03-04T09:16:56.239Z,0.70
2019-03-04T09:22:21.253Z,0.85
2019-03-04T09:24:50.697Z,0.30
2019-03-04T09:27:20.220Z,0.30
2019-03-04T09:33:00.624Z,0.50
2019-03-04T09:35:30.008Z,0.40
2019-03-04T09:37:59.392Z,0.50
2019-03-04T09:40:31.684Z,0.60
2019-03-04T09:43:02.616Z,0.60
2019-03-04T09:45:38.766Z,0.57
2019-03-04T09:48:03.112Z,0.40
2019-03-04T09:50:32.697Z,0.60
2019-03-04T09:53:02.136Z,0.50
2019-03-04T09:55:31.548Z,0.50
2019-03-04T09:58:00.886Z,0.53
2019-03-04T10:00:52.319Z,0.95
2019-03-04T10:03:50.433Z,0.50
2019-03-04T10:06:33.318Z,0.50
2019-03-04T10:09:22.395Z,0.50
2019-03-04T10:12:12.975Z,0.65
2019-03-04T10:15:12.694Z,0.60
2019-03-04T10:18:07.780Z,0.80
2019-03-04T10:21:01.627Z,1.00
2019-03-04T10:23:41.752Z,0.90
2019-03-04T10:26:45.135Z,1.00
2019-03-04T10:29:42.898Z,0.93
2019-03-04T10:32:36.281Z,0.80
2019-03-04T10:35:32.859Z,0.88
2019-03-04T10:38:22.177Z,1.20
2019-03-04T10:41:37.824Z,1.12
2019-03-04T10:44:52.617Z,1.40
2019-03-04T10:47:22.128Z,2.08
2019-03-04T10:50:12.673Z,1.25
2019-03-04T10:52:47.077Z,1.40
2019-03-04T10:55:26.036Z,1.67
2019-03-04T10:58:01.642Z,1.50
2019-03-04T11:00:31.175Z,1.30
2019-03-04T11:06:20.746Z,1.87
2019-03-04T11:18:32.772Z,1.65
2019-03-04T11:23:33.069Z,2.02
2019-03-04T11:26:02.501Z,2.87
2019-03-04T11:28:31.913Z,2.20
2019-03-04T11:31:09.928Z,3.17
2019-03-04T11:33:50.963Z,2.20
2019-03-04T11:36:20.681Z,2.87
2019-03-04T11:38:55.176Z,3.10
2019-03-04T11:41:30.681Z,2.30
2019-03-04T11:44:00.214Z,3.22
2019-03-04T11:46:29.903Z,2.75
2019-03-04T11:48:59.540Z,2.40
2019-03-04T11:51:29.204Z,2.70
2019-03-04T11:54:20.714Z,2.75
2019-03-04T12:09:13.443Z,2.45
2019-03-04T12:14:39.138Z,2.67
2019-03-04T12:17:18.357Z,2.65
2019-03-04T12:33:42.883Z,2.40
2019-03-04T12:42:39.055Z,2.25
2019-03-04T12:54:20.820Z,1.87
2019-03-04T12:57:53.967Z,1.80
2019-03-04T13:02:38.203Z,1.98
2019-03-04T13:12:05.251Z,1.72
2019-03-04T13:14:40.256Z,2.25
2019-03-04T13:23:25.303Z,2.00
2019-03-04T13:27:23.361Z,2.30
2019-03-04T13:28:38.727Z,1.92
2019-03-04T13:31:18.017Z,1.92
2019-03-04T17:37:40.486Z,2.27
2019-03-04T17:53:33.266Z,2.55
2019-03-04T18:09:15.525Z,1.95
2019-03-04T19:04:03.844Z,3.00
2019-03-04T19:06:56.784Z,4.05
2019-03-04T19:09:44.989Z,4.03
2019-03-04T19:15:56.528Z,3.55
2019-03-04T19:21:28.016Z,2.90
2019-03-04T19:38:45.686Z,1.40
2019-03-04T19:44:58.148Z,0.90
2019-03-04T20:00:44.107Z,1.55
2019-03-04T20:09:09.822Z,3.25
2019-03-04T20:11:39.178Z,2.58
2019-03-04T20:14:08.562Z,1.45
2019-03-04T20:16:38.024Z,2.12
2019-03-04T20:19:07.492Z,2.22
2019-03-04T20:21:38.318Z,2.42
2019-03-04T20:24:28.402Z,3.20
2019-03-04T20:30:25.632Z,5.12
2019-03-04T20:42:04.652Z,5.83
2019-03-04T20:47:12.444Z,6.62
2019-03-04T21:54:07.300Z,3.20
